Time;durP1;ratioP1;P1;durP2;ratioP2;P2;SDS_P1;SDS_P2;PMS_P1;PMS_P2;Temp;Humidity;BMP_temperature;BMP_pressure;BME280_temperature;BME280_humidity;BME280_pressure;Samples;Min_cycle;Max_cycle;Signal;HPM_P1;HPM_P2
2020/12/17 00:00:24;;;;;;;42.65;14.93;;;1.70;99.90;;;;;;4963812;28;20035;-83
2020/12/17 00:02:49;;;;;;;36.05;16.60;;;1.80;99.90;;;;;;4978662;28;20023;-84
2020/12/17 00:05:16;;;;;;;31.08;14.98;;;1.80;99.90;;;;;;5000956;28;20084;-83
2020/12/17 00:07:42;;;;;;;40.05;15.43;;;1.80;99.90;;;;;;4995933;28;20041;-81
2020/12/17 00:10:09;;;;;;;38.20;16.85;;;1.90;99.90;;;;;;4983709;28;20035;-82
2020/12/17 00:12:40;;;;;;;81.82;17.15;;;1.90;99.90;;;;;;4982011;28;20073;-82
2020/12/17 00:15:08;;;;;;;39.63;15.07;;;1.90;99.90;;;;;;4985802;28;20497;-82
2020/12/17 00:17:41;;;;;;;40.55;15.48;;;1.90;99.90;;;;;;4990152;28;20057;-83
2020/12/17 00:20:07;;;;;;;36.80;15.70;;;1.90;99.90;;;;;;4987747;28;20038;-85
2020/12/17 00:22:38;;;;;;;29.70;14.05;;;1.90;99.90;;;;;;4986249;28;20439;-82
2020/12/17 00:25:06;;;;;;;34.40;15.20;;;1.90;99.90;;;;;;4990599;28;20081;-83
2020/12/17 00:27:32;;;;;;;34.88;14.68;;;1.90;99.90;;;;;;4983104;28;20030;-83
2020/12/17 00:29:57;;;;;;;35.20;14.18;;;1.90;99.90;;;;;;4986641;28;20113;-82
2020/12/17 00:32:23;;;;;;;49.42;14.43;;;1.90;99.90;;;;;;4979749;28;20126;-83
2020/12/17 00:34:48;;;;;;;31.30;14.10;;;1.90;99.90;;;;;;4981770;28;20037;-82
2020/12/17 00:37:14;;;;;;;31.85;13.85;;;1.90;99.90;;;;;;4988847;28;20041;-82
2020/12/17 00:39:40;;;;;;;45.20;14.65;;;1.90;99.90;;;;;;4982041;28;20027;-82
2020/12/17 00:42:05;;;;;;;39.97;14.57;;;1.80;99.90;;;;;;4981982;28;20114;-82
2020/12/17 00:44:31;;;;;;;40.95;13.07;;;1.80;99.90;;;;;;4978740;28;20066;-82
2020/12/17 00:46:57;;;;;;;64.80;16.13;;;1.80;99.90;;;;;;4976558;28;20054;-82
2020/12/17 00:49:23;;;;;;;46.30;14.57;;;1.70;99.90;;;;;;4974638;28;20039;-80
2020/12/17 00:51:49;;;;;;;34.05;13.60;;;1.70;99.90;;;;;;4986845;28;20072;-83
2020/12/17 00:54:15;;;;;;;30.17;13.52;;;1.80;99.90;;;;;;4983820;28;20044;-82
2020/12/17 00:56:47;;;;;;;71.18;15.63;;;1.80;99.90;;;;;;4984918;28;20034;-82
2020/12/17 00:59:15;;;;;;;57.58;14.80;;;1.80;99.90;;;;;;4987375;28;20025;-81
2020/12/17 01:01:40;;;;;;;48.58;14.55;;;1.80;99.90;;;;;;4968917;28;20104;-83
2020/12/17 01:04:06;;;;;;;36.80;13.68;;;1.80;99.90;;;;;;4967346;28;20136;-82
2020/12/17 01:06:32;;;;;;;30.98;14.18;;;1.80;99.90;;;;;;4989309;28;20034;-83
2020/12/17 01:08:57;;;;;;;40.47;13.55;;;1.80;99.90;;;;;;4981500;28;20066;-83
2020/12/17 01:11:30;;;;;;;29.10;12.40;;;1.80;99.90;;;;;;5002302;28;20045;-83
2020/12/17 01:13:57;;;;;;;48.72;13.70;;;1.80;99.90;;;;;;4991153;28;20218;-81
2020/12/17 01:16:22;;;;;;;30.85;12.40;;;1.70;99.90;;;;;;4992270;28;20062;-82
2020/12/17 01:18:48;;;;;;;30.63;14.07;;;1.70;99.90;;;;;;4963712;28;20074;-82
2020/12/17 01:21:15;;;;;;;30.60;10.80;;;1.70;99.90;;;;;;4962856;28;20031;-83
2020/12/17 01:23:41;;;;;;;41.83;12.98;;;1.70;99.90;;;;;;4983082;28;20031;-83
2020/12/17 01:58:43;;;;;;;28.05;12.48;;;1.50;99.90;;;;;;1113018;23;21121;-80
2020/12/17 02:01:12;;;;;;;28.35;11.40;;;1.50;99.90;;;;;;4986131;28;20118;-83
2020/12/17 02:03:38;;;;;;;;;;;1.50;99.90;;;;;;4991411;28;20062;-81
2020/12/17 02:06:04;;;;;;;32.42;11.43;;;1.50;99.90;;;;;;4982646;28;19914;-81
2020/12/17 02:08:39;;;;;;;38.63;12.30;;;1.50;99.90;;;;;;4972997;28;20037;-80
2020/12/17 02:11:09;;;;;;;34.67;12.70;;;1.50;99.90;;;;;;4988318;28;20445;-81
2020/12/17 02:13:35;;;;;;;;;;;1.40;99.90;;;;;;4972263;28;20038;-80
2020/12/17 02:16:03;;;;;;;26.03;8.60;;;1.40;99.90;;;;;;4974157;28;19969;-82
2020/12/17 02:18:28;;;;;;;38.03;10.67;;;1.50;99.90;;;;;;4979603;28;20043;-81
2020/12/17 02:20:54;;;;;;;26.97;10.60;;;1.40;99.90;;;;;;4956582;28;20042;-83
2020/12/17 02:23:22;;;;;;;34.57;10.93;;;1.30;99.90;;;;;;4964336;28;20039;-82
2020/12/17 02:25:49;;;;;;;37.67;11.80;;;1.30;99.90;;;;;;4962770;28;20027;-81
2020/12/17 02:28:16;;;;;;;26.17;11.07;;;1.20;99.90;;;;;;4964563;28;20116;-81
2020/12/17 02:30:41;;;;;;;26.70;11.23;;;1.20;99.90;;;;;;4964026;28;20030;-79
2020/12/17 02:33:07;;;;;;;36.50;10.97;;;1.20;99.90;;;;;;4979358;28;20503;-82
2020/12/17 02:35:33;;;;;;;32.60;10.77;;;1.20;99.90;;;;;;4963664;28;20023;-81
2020/12/17 02:37:59;;;;;;;20.77;8.83;;;1.10;99.90;;;;;;4964939;28;20034;-83
2020/12/17 02:40:25;;;;;;;22.53;9.67;;;1.10;99.90;;;;;;4967593;28;20031;-81
2020/12/17 02:42:50;;;;;;;23.67;11.40;;;1.10;99.90;;;;;;4960506;28;20039;-82
2020/12/17 02:45:16;;;;;;;28.27;9.47;;;1.10;99.90;;;;;;4962269;28;20550;-82
2020/12/17 02:47:43;;;;;;;32.03;12.03;;;1.10;99.90;;;;;;4955018;28;20031;-81
2020/12/17 02:50:09;;;;;;;37.13;11.55;;;1.10;99.90;;;;;;4962872;28;20395;-81
2020/12/17 02:52:34;;;;;;;30.07;12.03;;;1.10;99.90;;;;;;4967034;28;20050;-81
2020/12/17 02:55:00;;;;;;;34.25;10.57;;;1.10;99.90;;;;;;4968014;28;20486;-80
2020/12/17 02:57:26;;;;;;;25.45;11.10;;;1.20;99.90;;;;;;4965841;28;20050;-82
2020/12/17 02:59:51;;;;;;;41.07;11.47;;;1.20;99.90;;;;;;4962822;28;20094;-81
2020/12/17 03:02:17;;;;;;;45.90;11.48;;;1.20;99.90;;;;;;4969759;28;20049;-80
2020/12/17 03:04:42;;;;;;;44.10;11.40;;;1.20;99.90;;;;;;4957513;28;20026;-80
2020/12/17 03:07:08;;;;;;;50.40;12.77;;;1.20;99.90;;;;;;4965880;28;20058;-81
2020/12/17 03:09:33;;;;;;;45.45;12.15;;;1.10;99.90;;;;;;4981596;28;20039;-82
2020/12/17 03:11:59;;;;;;;41.73;12.37;;;1.10;99.90;;;;;;4958998;28;20050;-81
2020/12/17 03:14:25;;;;;;;24.47;11.10;;;1.10;99.90;;;;;;4960039;28;20042;-81
2020/12/17 03:16:50;;;;;;;46.58;12.48;;;1.10;99.90;;;;;;4959685;28;20039;-80
2020/12/17 03:19:16;;;;;;;27.52;11.65;;;1.10;99.90;;;;;;4957884;28;20032;-81
2020/12/17 03:21:41;;;;;;;24.33;11.48;;;1.10;99.90;;;;;;4966376;28;20031;-82
2020/12/17 03:24:09;;;;;;;34.37;11.50;;;1.10;99.90;;;;;;4989306;28;20057;-82
2020/12/17 03:26:34;;;;;;;41.55;12.10;;;1.20;99.90;;;;;;4962229;28;20028;-82
2020/12/17 03:29:00;;;;;;;22.63;10.45;;;1.20;99.90;;;;;;4968707;28;20124;-82
2020/12/17 03:31:26;;;;;;;27.40;11.93;;;1.20;99.90;;;;;;4962856;28;20031;-82
2020/12/17 03:33:51;;;;;;;42.90;12.45;;;1.20;99.90;;;;;;4958517;28;20336;-82
2020/12/17 03:36:17;;;;;;;44.10;12.27;;;1.30;99.90;;;;;;4970576;28;20034;-82
2020/12/17 03:38:43;;;;;;;35.35;12.63;;;1.20;99.90;;;;;;4963682;28;20031;-81
2020/12/17 03:41:08;;;;;;;33.10;10.85;;;1.20;99.90;;;;;;4965013;28;20045;-82
2020/12/17 03:43:34;;;;;;;34.72;11.93;;;1.20;99.90;;;;;;4964615;28;20064;-82
2020/12/17 03:45:59;;;;;;;27.67;11.73;;;1.20;99.90;;;;;;4959799;28;20050;-82
2020/12/17 03:48:25;;;;;;;40.50;11.32;;;1.20;99.90;;;;;;4966701;28;20035;-82
2020/12/17 03:50:51;;;;;;;34.72;11.95;;;1.20;99.90;;;;;;4966880;28;20034;-81
2020/12/17 03:53:16;;;;;;;39.00;11.33;;;1.20;99.90;;;;;;4962234;28;20046;-81
2020/12/17 03:55:44;;;;;;;33.78;11.90;;;1.20;99.90;;;;;;4959628;28;20105;-83
2020/12/17 03:58:10;;;;;;;45.23;11.83;;;1.20;99.90;;;;;;4967695;28;20054;-80
2020/12/17 04:00:35;;;;;;;26.98;11.38;;;1.30;99.90;;;;;;4963629;28;20074;-82
2020/12/17 04:03:01;;;;;;;29.85;11.32;;;1.20;99.90;;;;;;4973751;28;20038;-80
2020/12/17 04:05:26;;;;;;;23.92;9.30;;;1.20;99.90;;;;;;4965077;28;20023;-81
2020/12/17 04:07:52;;;;;;;37.05;10.80;;;1.20;99.90;;;;;;4968009;28;20034;-81
2020/12/17 04:10:18;;;;;;;30.07;11.70;;;1.20;99.90;;;;;;4960377;28;20130;-82
2020/12/17 04:12:43;;;;;;;33.40;11.43;;;1.20;99.90;;;;;;4970103;28;20047;-80
2020/12/17 04:15:10;;;;;;;51.08;12.38;;;1.10;99.90;;;;;;4962938;28;20057;-82
2020/12/17 04:17:36;;;;;;;61.53;12.43;;;1.20;99.90;;;;;;4964094;28;20050;-80
2020/12/17 04:20:02;;;;;;;39.65;10.73;;;1.20;99.90;;;;;;4974219;28;20066;-82
2020/12/17 04:22:28;;;;;;;50.38;11.88;;;1.10;99.90;;;;;;4975453;28;20150;-82
2020/12/17 04:24:53;;;;;;;82.03;12.60;;;1.10;99.90;;;;;;4958409;28;20191;-82
2020/12/17 04:27:19;;;;;;;41.50;11.65;;;1.10;99.90;;;;;;4968264;28;20053;-82
2020/12/17 04:29:44;;;;;;;41.93;11.23;;;1.10;99.90;;;;;;4984390;28;20078;-81
2020/12/17 04:32:11;;;;;;;43.80;12.53;;;1.10;99.90;;;;;;4975731;28;20491;-81
2020/12/17 04:34:37;;;;;;;36.25;11.32;;;1.10;99.90;;;;;;4977547;28;20031;-82
2020/12/17 04:37:03;;;;;;;64.77;13.80;;;1.10;99.90;;;;;;4965402;28;20406;-81
2020/12/17 04:39:29;;;;;;;28.43;10.60;;;1.10;99.90;;;;;;4969155;28;20066;-82
2020/12/17 04:41:57;;;;;;;53.90;12.68;;;1.10;99.90;;;;;;4966687;28;20043;-81
2020/12/17 04:44:23;;;;;;;34.33;12.27;;;1.10;99.90;;;;;;4965689;28;20126;-80
2020/12/17 04:46:55;;;;;;;41.03;11.50;;;1.10;99.90;;;;;;4969408;28;20113;-82
2020/12/17 04:49:25;;;;;;;40.27;11.97;;;1.00;99.90;;;;;;4976183;28;20030;-80
2020/12/17 04:51:55;;;;;;;41.75;11.40;;;1.00;99.90;;;;;;4968452;28;20120;-81
2020/12/17 04:54:23;;;;;;;66.27;13.47;;;0.90;99.90;;;;;;4963069;28;20027;-81
2020/12/17 04:57:09;;;;;;;52.03;13.33;;;0.90;99.90;;;;;;4958627;28;20146;-81
2020/12/17 05:13:12;;;;;;;31.47;12.23;;;0.90;99.90;;;;;;4862961;29;20053;-77
2020/12/17 05:15:38;;;;;;;31.97;12.30;;;0.90;99.90;;;;;;4857068;29;20061;-77
2020/12/17 05:18:07;;;;;;;69.55;14.77;;;1.00;99.90;;;;;;4874272;29;20044;-77
2020/12/17 05:20:35;;;;;;;43.13;11.70;;;1.00;99.90;;;;;;4874641;29;20434;-77
2020/12/17 05:23:03;;;;;;;35.70;10.63;;;1.00;99.90;;;;;;4874444;29;20397;-77
2020/12/17 05:25:30;;;;;;;62.50;11.70;;;1.00;99.90;;;;;;4876498;29;20112;-77
2020/12/17 05:27:56;;;;;;;34.80;11.95;;;0.90;99.90;;;;;;4873004;29;20124;-78
2020/12/17 05:30:30;;;;;;;54.53;13.40;;;0.90;99.90;;;;;;4871084;29;20105;-80
2020/12/17 05:32:57;;;;;;;63.40;12.73;;;0.80;99.90;;;;;;4875853;29;20048;-80
2020/12/17 05:35:23;;;;;;;30.07;9.73;;;0.80;99.90;;;;;;4878821;29;20060;-80
2020/12/17 05:37:49;;;;;;;33.27;10.33;;;0.80;99.90;;;;;;4863815;29;20045;-81
2020/12/17 05:40:14;;;;;;;64.70;12.30;;;0.70;99.90;;;;;;4900746;29;20048;-80
2020/12/17 05:42:41;;;;;;;44.93;11.70;;;0.70;99.90;;;;;;4919778;29;20157;-80
2020/12/17 05:45:25;;;;;;;32.13;11.07;;;0.70;99.90;;;;;;4934107;29;20028;-81
2020/12/17 05:48:17;;;;;;;24.48;9.02;;;0.70;99.90;;;;;;4914793;29;20060;-81
2020/12/17 05:50:57;;;;;;;33.43;11.03;;;0.80;99.90;;;;;;4974270;28;20114;-81
2020/12/17 05:53:24;;;;;;;;;;;0.80;99.90;;;;;;4988652;28;20118;-80
2020/12/17 05:56:03;;;;;;;26.30;9.03;;;0.80;99.90;;;;;;4991540;28;19913;-80
2020/12/17 05:58:43;;;;;;;29.00;10.23;;;0.80;99.90;;;;;;4976126;28;20039;-81
2020/12/17 06:01:12;;;;;;;23.75;9.63;;;0.80;99.90;;;;;;4975009;28;20046;-79
2020/12/17 06:03:38;;;;;;;24.40;9.13;;;0.80;99.90;;;;;;4976274;28;20027;-80
2020/12/17 06:06:06;;;;;;;29.67;10.40;;;0.80;99.90;;;;;;4977285;28;20055;-80
2020/12/17 06:08:42;;;;;;;17.85;8.60;;;0.80;99.90;;;;;;4982479;28;20030;-81
2020/12/17 06:11:09;;;;;;;18.13;9.32;;;0.90;99.90;;;;;;4973354;28;20031;-78
2020/12/17 06:13:40;;;;;;;24.63;9.67;;;0.80;99.90;;;;;;4978721;28;20426;-80
2020/12/17 06:16:09;;;;;;;17.67;9.13;;;0.80;99.90;;;;;;4978605;28;20115;-80
2020/12/17 06:18:56;;;;;;;18.90;9.23;;;0.90;99.90;;;;;;4973698;28;20422;-80
2020/12/17 06:21:26;;;;;;;24.98;9.45;;;0.80;99.90;;;;;;4975257;28;20392;-79
2020/12/17 06:23:56;;;;;;;46.33;12.00;;;0.80;99.90;;;;;;4973248;28;20026;-80
2020/12/17 06:26:22;;;;;;;34.50;11.50;;;0.70;99.90;;;;;;4972850;28;20560;-80
2020/12/17 06:28:50;;;;;;;28.50;11.80;;;0.70;99.90;;;;;;4972357;28;20451;-79
2020/12/17 06:31:18;;;;;;;37.63;11.50;;;0.70;99.90;;;;;;4973243;28;20068;-81
2020/12/17 06:33:44;;;;;;;32.43;12.03;;;0.70;99.90;;;;;;4970142;28;20039;-80
2020/12/17 06:36:27;;;;;;;21.25;10.10;;;0.80;99.90;;;;;;4978602;28;20062;-79
2020/12/17 06:38:53;;;;;;;17.40;9.50;;;0.80;99.90;;;;;;4990560;28;20023;-78
2020/12/17 06:41:23;;;;;;;17.77;10.03;;;0.80;99.90;;;;;;4976306;28;20023;-77
2020/12/17 06:43:48;;;;;;;;;;;0.80;99.90;;;;;;4968351;28;20034;-77
2020/12/17 06:46:34;;;;;;;15.80;7.30;;;0.80;99.90;;;;;;4968943;28;19909;-77
2020/12/17 06:49:02;;;;;;;21.13;9.63;;;0.80;99.90;;;;;;4970107;28;20027;-77
2020/12/17 06:51:33;;;;;;;14.03;7.93;;;0.80;99.90;;;;;;4969876;28;20046;-78
2020/12/17 06:54:00;;;;;;;18.63;9.90;;;0.70;99.90;;;;;;4977507;28;20030;-78
2020/12/17 06:56:26;;;;;;;14.52;9.48;;;0.70;99.90;;;;;;4973360;28;20067;-77
2020/12/17 06:59:13;;;;;;;15.07;8.37;;;0.70;99.90;;;;;;4982107;28;20201;-77
2020/12/17 07:01:39;;;;;;;14.73;8.70;;;0.60;99.90;;;;;;4968040;28;20037;-78
2020/12/17 07:04:04;;;;;;;15.93;9.43;;;0.60;99.90;;;;;;4973247;28;20186;-76
2020/12/17 07:06:30;;;;;;;28.20;10.97;;;0.60;99.90;;;;;;4970512;28;20520;-77
2020/12/17 07:08:57;;;;;;;21.52;10.07;;;0.60;99.90;;;;;;4971365;28;20043;-77
2020/12/17 07:11:36;;;;;;;16.70;9.10;;;0.60;99.90;;;;;;4971773;28;20026;-79
2020/12/17 07:14:09;;;;;;;16.67;10.25;;;0.60;99.90;;;;;;4967234;28;20490;-80
2020/12/17 07:16:37;;;;;;;19.57;10.20;;;0.60;99.90;;;;;;4971039;28;20027;-84
2020/12/17 07:19:19;;;;;;;16.57;9.07;;;0.60;99.90;;;;;;4970552;28;20170;-80
2020/12/17 07:21:45;;;;;;;17.70;9.43;;;0.60;99.90;;;;;;4970807;28;20148;-81
2020/12/17 07:24:53;;;;;;;18.33;9.60;;;0.60;99.90;;;;;;4978828;28;20106;-79
2020/12/17 07:27:22;;;;;;;16.30;9.37;;;0.60;99.90;;;;;;4887885;29;20119;-79
2020/12/17 07:29:50;;;;;;;16.30;9.20;;;0.60;99.90;;;;;;4891683;29;20028;-83
2020/12/17 07:32:30;;;;;;;17.87;8.33;;;0.70;99.90;;;;;;4892762;29;20191;-82
2020/12/17 07:34:59;;;;;;;16.67;9.10;;;0.80;99.90;;;;;;4886355;29;20040;-80
2020/12/17 07:37:53;;;;;;;16.53;8.87;;;0.80;99.90;;;;;;4894012;29;20197;-82
2020/12/17 07:40:43;;;;;;;18.37;9.17;;;0.70;99.90;;;;;;4891889;29;20020;-77
2020/12/17 07:43:16;;;;;;;18.92;8.98;;;0.80;99.90;;;;;;4883285;29;20183;-80
2020/12/17 07:45:53;;;;;;;19.13;10.30;;;0.80;99.90;;;;;;4888022;29;20016;-81
2020/12/17 07:48:41;;;;;;;19.57;9.80;;;0.80;99.90;;;;;;4889535;29;20052;-77
2020/12/17 07:51:13;;;;;;;14.00;8.63;;;0.80;99.90;;;;;;4903124;29;20036;-77
2020/12/17 07:53:41;;;;;;;16.03;8.90;;;0.80;99.90;;;;;;4890333;29;20424;-76
2020/12/17 07:56:07;;;;;;;15.23;8.67;;;0.90;99.90;;;;;;4884219;29;20508;-77
2020/12/17 07:58:36;;;;;;;13.65;8.55;;;0.90;99.90;;;;;;4891017;29;20040;-79
2020/12/17 08:01:03;;;;;;;14.88;8.73;;;0.90;99.90;;;;;;4887117;29;20466;-79
2020/12/17 08:03:31;;;;;;;13.98;8.13;;;1.00;99.90;;;;;;4921983;28;20066;-77
2020/12/17 08:06:07;;;;;;;14.82;8.68;;;1.00;99.90;;;;;;4978226;28;20090;-76
2020/12/17 08:08:33;;;;;;;13.67;9.47;;;1.20;99.90;;;;;;4980824;28;20034;-77
2020/12/17 08:11:03;;;;;;;15.57;9.27;;;1.20;99.90;;;;;;4970728;28;20031;-75
2020/12/17 08:13:29;;;;;;;16.27;10.07;;;1.30;99.90;;;;;;4966423;28;20406;-77
2020/12/17 08:15:56;;;;;;;14.63;9.63;;;1.40;99.90;;;;;;4974444;28;20027;-78
2020/12/17 08:18:32;;;;;;;14.50;9.32;;;1.40;99.90;;;;;;4968576;28;20163;-76
2020/12/17 08:21:05;;;;;;;13.68;8.30;;;1.50;99.90;;;;;;4974059;28;20205;-78
2020/12/17 08:23:33;;;;;;;12.23;7.85;;;1.50;99.90;;;;;;4970371;28;20045;-76
2020/12/17 08:26:03;;;;;;;13.68;7.85;;;1.60;99.90;;;;;;4987237;28;20140;-76
2020/12/17 08:28:44;;;;;;;11.57;7.88;;;1.60;99.90;;;;;;4970228;28;20107;-77
2020/12/17 08:31:15;;;;;;;12.77;7.68;;;1.70;99.90;;;;;;4973815;28;20076;-77
2020/12/17 08:33:55;;;;;;;9.70;6.30;;;1.70;99.90;;;;;;4969423;28;20031;-76
2020/12/17 08:36:26;;;;;;;13.30;6.82;;;1.80;99.90;;;;;;4972612;28;20394;-80
2020/12/17 08:38:54;;;;;;;11.52;6.78;;;1.80;99.90;;;;;;4979537;28;20114;-76
2020/12/17 08:41:22;;;;;;;8.45;6.00;;;1.90;99.90;;;;;;4975348;28;20019;-78
2020/12/17 08:43:50;;;;;;;10.07;6.47;;;1.90;99.90;;;;;;4973050;28;20395;-76
2020/12/17 08:46:17;;;;;;;8.73;6.13;;;2.00;99.90;;;;;;4976075;28;20438;-77
2020/12/17 08:48:44;;;;;;;7.70;5.68;;;2.00;99.90;;;;;;4972033;28;20026;-76
2020/12/17 08:51:12;;;;;;;7.70;5.22;;;2.10;99.90;;;;;;4985777;28;20018;-78
2020/12/17 08:53:42;;;;;;;5.63;4.65;;;2.20;99.90;;;;;;4982071;28;20077;-76
2020/12/17 08:56:15;;;;;;;7.20;4.63;;;2.20;99.90;;;;;;4986477;28;20022;-76
2020/12/17 08:58:43;;;;;;;6.97;4.82;;;2.20;99.90;;;;;;4979617;28;20038;-76
2020/12/17 09:01:38;;;;;;;7.28;5.10;;;2.30;99.90;;;;;;4980328;28;20043;-76
2020/12/17 09:04:08;;;;;;;7.03;4.75;;;2.40;99.90;;;;;;4894141;29;20045;-77
2020/12/17 09:06:39;;;;;;;7.50;4.93;;;2.40;99.90;;;;;;4896350;29;20068;-77
2020/12/17 09:09:24;;;;;;;8.32;5.07;;;2.40;99.90;;;;;;4894442;29;20052;-78
2020/12/17 09:11:51;;;;;;;8.98;5.40;;;2.50;99.90;;;;;;4892487;29;20100;-77
2020/12/17 09:14:20;;;;;;;9.23;5.60;;;2.50;99.90;;;;;;4897679;29;20029;-78
2020/12/17 09:16:49;;;;;;;7.97;5.68;;;2.70;99.90;;;;;;4894463;29;20032;-76
2020/12/17 09:19:15;;;;;;;7.10;4.82;;;2.80;99.90;;;;;;4894273;29;20112;-77
2020/12/17 09:21:58;;;;;;;7.00;4.50;;;2.90;99.90;;;;;;4894746;29;20103;-76
2020/12/17 09:24:29;;;;;;;8.27;4.65;;;2.90;99.90;;;;;;4892081;29;20025;-75
2020/12/17 09:26:56;;;;;;;6.38;4.40;;;2.90;99.90;;;;;;4895984;29;20028;-77
2020/12/17 09:29:21;;;;;;;7.22;5.22;;;2.90;99.90;;;;;;4898704;29;20084;-77
2020/12/17 09:31:47;;;;;;;9.15;5.00;;;3.00;99.90;;;;;;4897969;29;20044;-76
2020/12/17 09:34:15;;;;;;;7.63;5.28;;;3.00;99.90;;;;;;4894475;29;20051;-76
2020/12/17 09:36:54;;;;;;;6.78;4.35;;;2.90;99.90;;;;;;4898432;29;20480;-76
2020/12/17 09:39:19;;;;;;;5.43;4.00;;;3.10;99.90;;;;;;4901369;29;20033;-78
2020/12/17 09:41:55;;;;;;;7.90;4.60;;;3.30;99.90;;;;;;4970945;28;20034;-78
2020/12/17 09:44:31;;;;;;;8.48;4.40;;;3.30;99.90;;;;;;4968561;28;20074;-80
2020/12/17 09:46:57;;;;;;;7.95;4.90;;;3.40;99.90;;;;;;4964485;28;20086;-79
2020/12/17 09:49:35;;;;;;;7.70;4.50;;;3.50;99.90;;;;;;4976396;28;20057;-81
2020/12/17 09:53:01;;;;;;;6.47;4.75;;;3.50;99.90;;;;;;4978860;28;20030;-81
2020/12/17 09:55:43;;;;;;;9.27;4.60;;;3.50;99.90;;;;;;4892927;29;20060;-80
2020/12/17 10:03:16;;;;;;;12.32;5.65;;;3.40;99.90;;;;;;5005162;23;20069;-80
2020/12/17 10:15:06;;;;;;;6.65;4.78;;;3.80;99.90;;;;;;4963141;28;20059;-82
2020/12/17 10:17:32;;;;;;;8.10;4.75;;;4.10;99.90;;;;;;4969754;28;20043;-81
2020/12/17 10:19:57;;;;;;;6.75;4.40;;;4.30;99.90;;;;;;4966470;28;20090;-82
2020/12/17 10:22:23;;;;;;;7.07;4.50;;;4.40;99.90;;;;;;4974406;28;20019;-79
2020/12/17 10:24:48;;;;;;;6.63;4.00;;;4.60;99.90;;;;;;4975002;28;20030;-81
2020/12/17 10:27:14;;;;;;;7.97;4.55;;;4.80;99.90;;;;;;4970915;28;20027;-80
2020/12/17 10:29:40;;;;;;;11.43;6.95;;;4.80;99.90;;;;;;4973664;28;20019;-81
2020/12/17 10:32:06;;;;;;;7.60;4.20;;;4.90;99.90;;;;;;4964289;28;20482;-81
2020/12/17 10:34:31;;;;;;;7.85;4.43;;;5.10;99.90;;;;;;4967622;28;20073;-80
2020/12/17 10:36:57;;;;;;;10.13;4.38;;;5.20;99.90;;;;;;4968907;28;20517;-82
2020/12/17 10:39:22;;;;;;;5.55;4.40;;;5.40;99.90;;;;;;4969309;28;20027;-80
2020/12/17 10:41:48;;;;;;;9.00;4.15;;;5.50;99.90;;;;;;4965679;28;20474;-82
2020/12/17 10:44:13;;;;;;;6.85;4.70;;;5.70;99.90;;;;;;4966306;28;20126;-81
2020/12/17 10:46:39;;;;;;;7.03;4.35;;;5.70;99.90;;;;;;4964076;28;20159;-83
2020/12/17 10:49:05;;;;;;;6.43;4.53;;;5.80;99.90;;;;;;4974115;28;20031;-82
2020/12/17 10:51:31;;;;;;;7.45;4.53;;;5.80;99.90;;;;;;4963752;28;20026;-80
2020/12/17 10:53:57;;;;;;;8.32;4.72;;;5.90;99.90;;;;;;4967555;28;20623;-80
2020/12/17 10:56:24;;;;;;;7.90;4.63;;;6.10;99.90;;;;;;4961530;28;20069;-81
2020/12/17 10:58:50;;;;;;;6.95;4.60;;;6.00;99.90;;;;;;4967773;28;20041;-80
2020/12/17 11:01:23;;;;;;;9.50;4.75;;;6.10;99.90;;;;;;4960432;28;20026;-82
2020/12/17 11:03:50;;;;;;;8.10;4.93;;;6.10;99.90;;;;;;4959610;28;20139;-83
2020/12/17 11:06:18;;;;;;;8.82;4.90;;;6.20;99.90;;;;;;4958197;28;20019;-79
2020/12/17 11:08:43;;;;;;;8.80;4.60;;;6.40;99.90;;;;;;4961300;28;20025;-80
2020/12/17 11:11:10;;;;;;;9.05;4.55;;;6.50;99.90;;;;;;4974076;28;20078;-83
2020/12/17 11:13:36;;;;;;;7.47;4.43;;;6.60;99.90;;;;;;4960647;28;20052;-82
2020/12/17 11:16:02;;;;;;;11.18;4.57;;;6.70;99.90;;;;;;4969705;28;20042;-82
2020/12/17 11:18:28;;;;;;;5.80;3.97;;;6.80;99.90;;;;;;4962814;28;20035;-81
2020/12/17 11:20:54;;;;;;;7.50;4.63;;;6.90;99.90;;;;;;4959024;28;20676;-78
2020/12/17 11:23:44;;;;;;;6.40;3.97;;;7.00;99.90;;;;;;4954753;28;20043;-78
2020/12/17 11:26:09;;;;;;;7.38;4.28;;;7.20;99.90;;;;;;4910556;29;20043;-78
2020/12/17 11:28:35;;;;;;;5.32;3.85;;;7.40;99.90;;;;;;4906429;29;20079;-77
2020/12/17 11:31:01;;;;;;;5.47;3.72;;;7.50;99.90;;;;;;4908699;29;20384;-78
2020/12/17 11:33:26;;;;;;;5.05;3.60;;;7.70;99.90;;;;;;4910456;29;20052;-78
2020/12/17 11:35:52;;;;;;;8.93;4.35;;;7.80;99.90;;;;;;4910243;29;20040;-77
2020/12/17 11:38:19;;;;;;;5.05;3.42;;;8.00;99.90;;;;;;4908054;29;20096;-77
2020/12/17 11:40:44;;;;;;;6.05;3.72;;;8.00;99.90;;;;;;4909693;29;20501;-76
2020/12/17 11:43:10;;;;;;;8.20;3.95;;;8.10;99.90;;;;;;4910276;29;20072;-79
2020/12/17 11:45:36;;;;;;;6.10;4.00;;;8.20;99.90;;;;;;4904192;29;20510;-79
2020/12/17 11:48:01;;;;;;;8.32;4.00;;;8.40;99.90;;;;;;4908361;29;20476;-77
2020/12/17 11:50:27;;;;;;;8.20;4.15;;;8.40;99.90;;;;;;4908213;29;20048;-77
2020/12/17 11:52:53;;;;;;;6.38;4.00;;;8.60;99.90;;;;;;4908407;29;20104;-77
2020/12/17 11:55:19;;;;;;;5.63;3.85;;;8.70;99.90;;;;;;4903021;29;20036;-78
2020/12/17 11:57:50;;;;;;;8.40;4.30;;;8.90;99.90;;;;;;4904005;29;20672;-76
2020/12/17 12:00:21;;;;;;;9.25;4.35;;;9.00;99.90;;;;;;4909388;29;20676;-79
2020/12/17 12:02:48;;;;;;;10.35;5.28;;;9.00;99.90;;;;;;4925759;28;20098;-77
2020/12/17 12:05:14;;;;;;;9.35;5.55;;;9.10;99.90;;;;;;4953207;28;20039;-76
2020/12/17 12:07:39;;;;;;;9.25;5.65;;;9.10;99.90;;;;;;4963370;28;20068;-78
2020/12/17 12:10:05;;;;;;;12.82;5.70;;;9.20;99.90;;;;;;4966961;28;20035;-77
2020/12/17 12:12:32;;;;;;;10.02;5.60;;;9.30;99.90;;;;;;4955330;28;20433;-78
2020/12/17 12:15:00;;;;;;;9.25;6.15;;;9.30;99.90;;;;;;4958648;28;20051;-77
2020/12/17 12:17:26;;;;;;;10.68;5.47;;;9.50;99.90;;;;;;4965915;28;20484;-78
2020/12/17 12:19:52;;;;;;;8.95;4.93;;;9.60;99.90;;;;;;4961225;28;20030;-77
2020/12/17 12:22:17;;;;;;;8.05;5.18;;;9.60;99.90;;;;;;4966393;28;20039;-78
2020/12/17 12:24:43;;;;;;;7.13;4.60;;;9.70;99.90;;;;;;4972221;28;20128;-78
2020/12/17 12:27:08;;;;;;;10.18;5.30;;;9.80;99.90;;;;;;4967716;28;20414;-80
2020/12/17 12:29:35;;;;;;;9.35;5.05;;;9.90;99.90;;;;;;4969746;28;20027;-80
2020/12/17 12:32:01;;;;;;;7.00;4.15;;;10.10;99.90;;;;;;4968366;28;20447;-78
2020/12/17 12:34:27;;;;;;;7.55;4.57;;;10.20;99.90;;;;;;4966527;28;20038;-78
2020/12/17 12:36:55;;;;;;;6.05;4.10;;;10.30;99.90;;;;;;4959719;28;20494;-78
2020/12/17 12:39:21;;;;;;;6.20;3.50;;;10.40;99.90;;;;;;4969032;28;20121;-79
2020/12/17 12:41:51;;;;;;;7.28;3.60;;;10.40;99.90;;;;;;4964789;28;20051;-77
2020/12/17 12:44:17;;;;;;;;;;;10.50;99.90;;;;;;4967483;28;20122;-75
2020/12/17 12:46:44;;;;;;;7.40;3.90;;;10.60;99.90;;;;;;4971479;28;19956;-77
2020/12/17 12:49:10;;;;;;;7.00;3.20;;;10.60;99.90;;;;;;4968242;28;20398;-79
2020/12/17 12:51:35;;;;;;;6.63;3.40;;;10.60;99.90;;;;;;4960940;28;20019;-77
2020/12/17 12:54:01;;;;;;;6.55;3.50;;;10.80;99.90;;;;;;4974299;28;20106;-77
2020/12/17 12:56:28;;;;;;;8.00;3.38;;;10.80;99.90;;;;;;4972722;28;20058;-77
2020/12/17 12:58:54;;;;;;;6.78;3.20;;;10.90;99.90;;;;;;4965817;28;20077;-79
2020/12/17 13:01:20;;;;;;;8.32;3.40;;;11.10;99.90;;;;;;4963893;28;20491;-79
2020/12/17 13:03:46;;;;;;;8.45;3.20;;;11.10;99.90;;;;;;4969946;28;20390;-79
2020/12/17 13:06:21;;;;;;;6.35;2.95;;;11.30;99.90;;;;;;4961621;28;20078;-79
2020/12/17 13:08:50;;;;;;;5.93;2.63;;;11.40;99.90;;;;;;4959079;28;20107;-78
2020/12/17 13:11:22;;;;;;;9.75;2.55;;;11.50;99.90;;;;;;4961200;28;20136;-78
2020/12/17 13:13:48;;;;;;;4.93;2.67;;;11.60;99.90;;;;;;4964993;28;20042;-79
2020/12/17 13:16:28;;;;;;;9.63;3.30;;;11.60;99.90;;;;;;4971715;28;20458;-78
2020/12/17 13:18:54;;;;;;;;;;;11.60;99.90;;;;;;4971060;28;20070;-77
2020/12/17 13:21:21;;;;;;;5.20;2.75;;;11.70;99.90;;;;;;4964790;28;19932;-77
2020/12/17 13:23:53;;;;;;;6.82;3.20;;;11.60;99.90;;;;;;4972450;28;20031;-81
2020/12/17 13:26:20;;;;;;;7.00;3.28;;;11.70;99.90;;;;;;4963184;28;20042;-79
2020/12/17 13:28:47;;;;;;;5.20;3.10;;;11.70;99.90;;;;;;4965602;28;20050;-80
2020/12/17 13:31:13;;;;;;;9.10;3.58;;;11.60;99.90;;;;;;4964477;28;20022;-81
2020/12/17 13:33:39;;;;;;;8.50;3.72;;;11.70;99.90;;;;;;4967799;28;20031;-80
2020/12/17 13:36:08;;;;;;;7.85;3.78;;;11.70;99.90;;;;;;4966351;28;20030;-79
2020/12/17 13:38:34;;;;;;;7.45;3.08;;;11.50;99.90;;;;;;4967412;28;20027;-78
2020/12/17 13:41:00;;;;;;;8.25;3.78;;;11.60;99.90;;;;;;4965759;28;20034;-78
2020/12/17 13:43:26;;;;;;;9.18;3.35;;;11.60;99.90;;;;;;4966178;28;20031;-80
2020/12/17 13:45:52;;;;;;;9.68;3.80;;;11.70;99.90;;;;;;4963090;28;20020;-78
2020/12/17 13:48:18;;;;;;;9.40;4.10;;;11.70;99.90;;;;;;4965439;28;20053;-78
2020/12/17 13:50:44;;;;;;;9.88;4.70;;;11.60;99.90;;;;;;4968142;28;20426;-78
2020/12/17 13:53:10;;;;;;;8.82;4.32;;;11.50;99.90;;;;;;4964915;28;20137;-79
2020/12/17 13:55:36;;;;;;;12.20;4.30;;;11.60;99.90;;;;;;4965844;28;20086;-79